createdAt,value
2023-10-11T00:00:23.650Z,6.28
2023-10-11T00:03:25.113Z,6.03
2023-10-11T00:06:26.566Z,8.03
2023-10-11T00:09:27.918Z,5.10
2023-10-11T00:12:29.245Z,6.95
2023-10-11T00:15:30.585Z,5.40
2023-10-11T00:18:32.079Z,5.63
2023-10-11T00:21:33.675Z,6.10
2023-10-11T00:24:35.053Z,5.35
2023-10-11T00:27:36.371Z,6.13
2023-10-11T00:30:37.760Z,5.47
2023-10-11T00:33:39.912Z,5.43
2023-10-11T00:36:41.628Z,4.93
2023-10-11T00:39:42.961Z,5.30
2023-10-11T00:42:44.311Z,6.32
2023-10-11T00:45:45.658Z,5.15
2023-10-11T00:48:47.023Z,7.47
2023-10-11T00:51:48.567Z,5.87
2023-10-11T00:54:49.938Z,5.35
2023-10-11T00:57:51.276Z,5.20
2023-10-11T01:00:52.610Z,4.43
2023-10-11T01:03:54.163Z,4.20
2023-10-11T01:06:55.647Z,4.73
2023-10-11T01:09:56.989Z,4.88
2023-10-11T01:12:58.328Z,5.28
2023-10-11T01:15:59.708Z,4.30
2023-10-11T01:19:01.073Z,5.88
2023-10-11T01:22:02.409Z,4.50
2023-10-11T01:25:03.803Z,4.93
2023-10-11T01:28:05.122Z,4.07
2023-10-11T01:31:06.452Z,4.65
2023-10-11T01:34:07.957Z,4.93
2023-10-11T01:37:09.448Z,5.53
2023-10-11T01:40:10.832Z,4.90
2023-10-11T01:43:12.170Z,4.25
2023-10-11T01:46:13.532Z,4.03
2023-10-11T01:49:14.962Z,5.03
2023-10-11T01:52:16.354Z,5.43
2023-10-11T01:55:17.718Z,12.27
2023-10-11T01:58:19.052Z,5.57
2023-10-11T02:01:20.465Z,4.85
2023-10-11T02:04:21.841Z,4.65
2023-10-11T02:07:23.202Z,4.07
2023-10-11T02:10:24.531Z,5.10
2023-10-11T02:13:25.885Z,5.93
2023-10-11T02:16:27.226Z,4.15
2023-10-11T02:19:28.583Z,4.28
2023-10-11T02:22:29.957Z,7.27
2023-10-11T02:25:31.290Z,3.90
2023-10-11T02:28:32.622Z,4.93
2023-10-11T02:31:33.981Z,5.35
2023-10-11T02:34:35.350Z,4.25
2023-10-11T02:37:36.695Z,5.47
2023-10-11T02:40:38.039Z,4.60
2023-10-11T02:43:41.231Z,4.30
2023-10-11T02:46:43.002Z,5.78
2023-10-11T02:49:44.343Z,4.75
2023-10-11T02:52:45.674Z,4.13
2023-10-11T02:55:47.010Z,4.35
2023-10-11T02:58:48.365Z,5.40
2023-10-11T03:01:49.899Z,4.90
2023-10-11T03:04:51.235Z,4.43
2023-10-11T03:07:52.566Z,4.37
2023-10-11T03:10:53.914Z,4.30
2023-10-11T03:13:55.256Z,3.67
2023-10-11T03:16:56.630Z,4.13
2023-10-11T03:19:57.977Z,4.38
2023-10-11T03:22:59.319Z,7.50
2023-10-11T03:26:00.674Z,5.20
2023-10-11T03:29:02.042Z,5.38
2023-10-11T03:32:03.377Z,5.60
2023-10-11T03:35:04.727Z,4.70
2023-10-11T03:38:06.069Z,6.00
2023-10-11T03:41:07.420Z,4.57
2023-10-11T03:44:08.770Z,5.78
2023-10-11T03:47:10.450Z,4.60
2023-10-11T03:50:11.903Z,5.40
2023-10-11T03:53:13.258Z,3.87
2023-10-11T03:56:14.612Z,5.07
2023-10-11T03:59:16.085Z,6.25
2023-10-11T04:02:17.528Z,3.72
2023-10-11T04:05:18.879Z,4.38
2023-10-11T04:08:20.236Z,4.50
2023-10-11T04:11:21.571Z,4.75
2023-10-11T04:14:22.903Z,3.97
2023-10-11T04:17:24.297Z,4.68
2023-10-11T04:20:25.684Z,4.45
2023-10-11T04:23:27.043Z,4.30
2023-10-11T04:26:28.371Z,4.75
2023-10-11T04:29:29.706Z,5.50
2023-10-11T04:32:31.071Z,4.18
2023-10-11T04:35:32.409Z,4.88
2023-10-11T04:38:33.743Z,5.33
2023-10-11T04:41:35.099Z,4.28
2023-10-11T04:44:36.467Z,6.38
2023-10-11T04:47:37.906Z,6.47
2023-10-11T04:50:39.312Z,9.52
2023-10-11T04:53:40.674Z,4.90
2023-10-11T04:56:42.036Z,7.72
2023-10-11T04:59:43.425Z,6.05
2023-10-11T05:02:44.895Z,6.57
2023-10-11T05:05:46.354Z,6.70
2023-10-11T05:08:50.244Z,5.40
2023-10-11T05:11:52.032Z,5.85
2023-10-11T05:14:53.419Z,8.80
2023-10-11T05:17:54.893Z,6.13
2023-10-11T05:20:56.321Z,7.55
2023-10-11T05:23:57.729Z,9.83
2023-10-11T05:26:59.088Z,6.22
2023-10-11T05:30:00.584Z,6.32
2023-10-11T05:33:02.050Z,6.95
2023-10-11T05:36:03.515Z,9.98
2023-10-11T05:39:04.965Z,6.10
2023-10-11T05:42:06.436Z,8.23
2023-10-11T05:45:07.848Z,8.07
2023-10-11T05:48:09.321Z,10.65
2023-10-11T05:51:10.848Z,6.75
2023-10-11T05:54:12.344Z,62.93
2023-10-11T05:57:13.790Z,71.68
2023-10-11T06:00:15.266Z,67.18
2023-10-11T06:03:16.723Z,49.13
2023-10-11T06:06:18.188Z,35.83
2023-10-11T06:09:20.134Z,32.57
2023-10-11T06:12:21.786Z,45.00
2023-10-11T06:15:23.224Z,37.83
2023-10-11T06:18:24.712Z,25.42
2023-10-11T06:21:26.152Z,40.72
2023-10-11T06:24:27.576Z,25.47
2023-10-11T06:27:28.973Z,39.38
2023-10-11T06:30:30.404Z,26.00
2023-10-11T06:33:31.927Z,28.67
2023-10-11T06:36:33.349Z,25.23
2023-10-11T06:39:34.751Z,21.77
2023-10-11T06:42:36.147Z,32.85
2023-10-11T06:45:37.507Z,26.52
2023-10-11T06:48:38.908Z,23.23
2023-10-11T06:51:40.312Z,21.27
2023-10-11T06:54:41.630Z,28.97
2023-10-11T06:57:43.013Z,14.75
2023-10-11T07:00:44.342Z,23.98
2023-10-11T07:03:48.403Z,20.33
2023-10-11T07:06:50.230Z,22.10
2023-10-11T07:09:51.588Z,16.03
2023-10-11T07:12:52.967Z,21.00
2023-10-11T07:15:54.306Z,11.52
2023-10-11T07:18:56.188Z,16.13
2023-10-11T07:21:57.607Z,14.25
2023-10-11T07:24:59.089Z,13.23
2023-10-11T07:28:00.419Z,22.80
2023-10-11T07:31:01.789Z,15.38
2023-10-11T07:34:03.209Z,16.02
2023-10-11T07:37:04.645Z,14.50
2023-10-11T07:40:05.979Z,8.60
2023-10-11T07:43:07.333Z,12.88
2023-10-11T07:46:08.711Z,19.65
2023-10-11T07:49:10.574Z,13.73
2023-10-11T07:52:11.966Z,17.60
2023-10-11T07:55:14.026Z,14.27
2023-10-11T07:58:23.618Z,16.33
2023-10-11T08:01:25.031Z,13.85
2023-10-11T08:04:26.498Z,14.50
2023-10-11T08:07:27.908Z,15.68
2023-10-11T08:10:29.287Z,18.13
2023-10-11T08:13:30.628Z,16.38
2023-10-11T08:16:31.989Z,14.93
2023-10-11T08:19:33.347Z,11.40
2023-10-11T08:22:34.681Z,11.68
2023-10-11T08:25:36.028Z,12.23
2023-10-11T08:28:37.387Z,13.82
2023-10-11T08:31:38.957Z,15.85
2023-10-11T08:34:40.397Z,15.38
2023-10-11T08:37:41.785Z,23.38
2023-10-11T08:40:43.154Z,17.33
2023-10-11T08:43:44.532Z,10.80
2023-10-11T08:46:45.888Z,7.20
2023-10-11T08:49:47.226Z,9.90
2023-10-11T08:52:48.593Z,12.38
2023-10-11T08:55:49.936Z,10.17
2023-10-11T08:58:51.375Z,9.95
2023-10-11T09:01:52.741Z,8.88
2023-10-11T09:04:54.094Z,11.30
2023-10-11T09:07:55.745Z,9.75
2023-10-11T09:10:57.092Z,10.27
2023-10-11T09:14:01.593Z,10.55
2023-10-11T09:17:02.923Z,8.20
2023-10-11T09:20:04.282Z,11.80
2023-10-11T09:23:05.625Z,17.55
2023-10-11T09:26:06.966Z,11.90
2023-10-11T09:29:08.332Z,12.52
2023-10-11T09:32:09.680Z,8.45
2023-10-11T09:35:11.052Z,12.48
2023-10-11T09:38:12.396Z,12.07
2023-10-11T09:41:13.722Z,6.90
2023-10-11T09:44:15.059Z,7.43
2023-10-11T09:47:16.406Z,11.70
2023-10-11T09:50:17.744Z,7.88
2023-10-11T09:53:19.123Z,7.28
2023-10-11T09:56:20.473Z,5.50
2023-10-11T09:59:21.811Z,7.30
2023-10-11T10:02:23.190Z,9.30
2023-10-11T10:05:24.777Z,7.43
2023-10-11T10:08:28.662Z,9.15
2023-10-11T10:11:29.995Z,16.63
2023-10-11T10:14:31.346Z,10.02
2023-10-11T10:17:32.738Z,9.30
2023-10-11T10:20:34.095Z,12.52
2023-10-11T10:23:35.461Z,8.13
2023-10-11T10:26:36.796Z,11.27
2023-10-11T10:29:38.152Z,7.28
2023-10-11T10:32:42.365Z,9.40
2023-10-11T10:35:43.705Z,8.35
2023-10-11T10:38:45.092Z,10.63
2023-10-11T10:41:46.432Z,10.63
2023-10-11T10:44:47.773Z,9.18
2023-10-11T10:47:49.182Z,6.53
2023-10-11T10:50:50.582Z,12.40
2023-10-11T10:53:52.282Z,11.88
2023-10-11T10:56:53.941Z,9.80
2023-10-11T10:59:55.355Z,15.55
2023-10-11T11:02:56.898Z,64.80
2023-10-11T11:05:58.322Z,36.17
2023-10-11T11:09:00.145Z,31.95
2023-10-11T11:12:01.604Z,25.27
2023-10-11T11:15:03.036Z,28.75
2023-10-11T11:18:04.484Z,19.85
2023-10-11T11:21:05.950Z,16.58
2023-10-11T11:24:07.456Z,13.20
2023-10-11T11:27:08.840Z,17.67
2023-10-11T11:30:10.265Z,15.95
2023-10-11T11:33:11.760Z,9.57
2023-10-11T11:36:13.184Z,15.13
2023-10-11T11:39:14.614Z,10.88
2023-10-11T11:42:16.045Z,15.63
2023-10-11T11:45:17.452Z,16.88
2023-10-11T11:48:18.874Z,12.10
2023-10-11T11:51:20.284Z,9.80
2023-10-11T11:54:21.813Z,10.23
2023-10-11T11:57:23.368Z,8.77
2023-10-11T12:00:24.812Z,10.23
2023-10-11T12:03:26.383Z,8.18
2023-10-11T12:06:28.210Z,10.70
2023-10-11T12:09:29.689Z,8.82
2023-10-11T12:12:31.127Z,15.57
2023-10-11T12:15:32.619Z,18.10
2023-10-11T12:18:34.235Z,10.68
2023-10-11T12:21:35.659Z,12.07
2023-10-11T12:24:37.359Z,10.57
2023-10-11T12:27:39.010Z,12.60
2023-10-11T12:30:40.437Z,8.98
2023-10-11T12:33:41.923Z,9.70
2023-10-11T12:36:43.448Z,8.02
2023-10-11T12:39:44.853Z,17.10
2023-10-11T12:42:46.379Z,13.30
2023-10-11T12:45:48.164Z,7.35
2023-10-11T12:48:49.549Z,8.02
2023-10-11T12:51:50.924Z,10.77
2023-10-11T12:54:52.281Z,6.15
2023-10-11T12:57:53.660Z,9.83
2023-10-11T13:00:55.320Z,6.90
2023-10-11T13:03:56.983Z,10.40
2023-10-11T13:06:58.381Z,14.18
2023-10-11T13:09:59.757Z,11.68
2023-10-11T13:13:01.156Z,10.10
2023-10-11T13:16:02.557Z,13.13
2023-10-11T13:19:03.938Z,10.63
2023-10-11T13:22:05.281Z,15.60
2023-10-11T13:25:06.628Z,14.50
2023-10-11T13:28:07.997Z,13.17
2023-10-11T13:31:09.412Z,13.02
2023-10-11T13:34:10.779Z,11.68
2023-10-11T13:37:12.130Z,9.85
2023-10-11T13:40:13.475Z,11.75
2023-10-11T13:43:14.876Z,45.47
2023-10-11T13:46:16.424Z,132.75
2023-10-11T13:49:17.874Z,50.05
2023-10-11T13:52:20.451Z,33.47
2023-10-11T13:55:21.826Z,34.53
2023-10-11T13:58:23.258Z,33.93
2023-10-11T14:01:24.605Z,27.00
2023-10-11T14:04:26.323Z,18.92
2023-10-11T14:07:27.815Z,21.05
2023-10-11T14:10:29.528Z,30.90
2023-10-11T14:13:31.050Z,30.70
2023-10-11T14:16:32.470Z,19.45
2023-10-11T14:19:33.904Z,24.52
2023-10-11T14:22:35.257Z,19.63
2023-10-11T14:25:36.591Z,15.85
2023-10-11T14:28:37.936Z,18.63
2023-10-11T14:31:39.334Z,23.70
2023-10-11T14:34:40.710Z,20.95
2023-10-11T14:37:42.045Z,23.27
2023-10-11T14:40:43.405Z,19.92
2023-10-11T14:43:44.763Z,10.50
2023-10-11T14:46:46.282Z,16.58
2023-10-11T14:49:47.767Z,19.40
2023-10-11T14:52:49.140Z,18.75
2023-10-11T14:55:50.484Z,13.02
2023-10-11T14:58:51.843Z,12.37
2023-10-11T15:01:53.226Z,18.10
2023-10-11T15:04:54.681Z,13.50
2023-10-11T15:07:56.078Z,11.32
2023-10-11T15:10:57.467Z,11.18
2023-10-11T15:13:58.847Z,10.10
2023-10-11T15:17:00.178Z,9.65
2023-10-11T15:20:01.561Z,8.45
2023-10-11T15:23:02.997Z,8.52
2023-10-11T15:26:04.781Z,14.10
2023-10-11T15:29:06.423Z,11.10
2023-10-11T15:32:07.762Z,11.20
2023-10-11T15:35:09.119Z,10.50
2023-10-11T15:38:10.493Z,13.80
2023-10-11T15:41:14.631Z,13.68
2023-10-11T15:44:15.977Z,12.23
2023-10-11T15:47:17.366Z,10.60
2023-10-11T15:50:18.716Z,12.38
2023-10-11T15:53:20.062Z,13.88
2023-10-11T15:56:21.418Z,12.55
2023-10-11T15:59:22.788Z,16.93
2023-10-11T16:02:24.190Z,16.35
2023-10-11T16:05:25.596Z,12.48
2023-10-11T16:08:26.931Z,14.90
2023-10-11T16:11:28.279Z,12.68
2023-10-11T16:14:29.866Z,17.30
2023-10-11T16:17:31.392Z,13.65
2023-10-11T16:20:32.746Z,16.10
2023-10-11T16:23:34.079Z,11.13
2023-10-11T16:26:36.943Z,10.90
2023-10-11T16:29:39.110Z,11.30
2023-10-11T16:32:40.488Z,9.65
2023-10-11T16:35:41.916Z,9.13
2023-10-11T16:38:43.237Z,10.48
2023-10-11T16:41:44.591Z,9.27
2023-10-11T16:44:45.960Z,9.27
2023-10-11T16:47:47.444Z,12.73
2023-10-11T16:50:48.858Z,13.98
2023-10-11T16:53:50.237Z,11.63
2023-10-11T16:56:52.072Z,11.65
2023-10-11T16:59:53.382Z,10.60
2023-10-11T17:02:54.785Z,10.63
2023-10-11T17:05:56.174Z,12.30
2023-10-11T17:08:57.577Z,11.07
2023-10-11T17:11:58.945Z,15.02
2023-10-11T17:15:00.291Z,14.07
2023-10-11T17:18:01.719Z,15.25
2023-10-11T17:21:03.078Z,17.45
2023-10-11T17:24:04.435Z,20.02
2023-10-11T17:27:05.979Z,14.30
2023-10-11T17:30:07.541Z,15.47
2023-10-11T17:33:09.126Z,18.35
2023-10-11T17:36:10.729Z,18.13
2023-10-11T17:39:12.209Z,20.10
2023-10-11T17:42:13.585Z,22.70
2023-10-11T17:45:15.574Z,20.10
2023-10-11T17:48:17.066Z,18.52
2023-10-11T17:51:18.957Z,22.25
2023-10-11T17:54:20.740Z,21.45
2023-10-11T17:57:22.735Z,22.45
2023-10-11T18:00:24.646Z,22.20
2023-10-11T18:03:26.528Z,22.38
2023-10-11T18:06:28.070Z,23.92
2023-10-11T18:09:29.575Z,23.50
2023-10-11T18:12:31.680Z,22.08
2023-10-11T18:15:33.650Z,21.83
2023-10-11T18:18:35.873Z,22.42
2023-10-11T18:21:38.109Z,23.23
2023-10-11T18:24:40.185Z,23.70
2023-10-11T18:27:41.686Z,27.73
2023-10-11T18:30:43.730Z,22.17
2023-10-11T18:33:45.988Z,24.75
2023-10-11T18:36:48.212Z,23.98
2023-10-11T18:39:50.285Z,25.52
2023-10-11T18:42:55.222Z,23.65
2023-10-11T18:45:57.433Z,24.73
2023-10-11T18:48:59.574Z,24.10
2023-10-11T18:52:01.685Z,25.00
2023-10-11T18:55:03.681Z,22.38
2023-10-11T18:58:05.674Z,22.20
2023-10-11T19:01:08.176Z,24.83
2023-10-11T19:04:10.523Z,22.40
2023-10-11T19:07:12.676Z,22.83
2023-10-11T19:10:14.174Z,23.40
2023-10-11T19:13:16.042Z,22.90
2023-10-11T19:16:24.971Z,24.97
2023-10-11T19:19:27.189Z,26.30
2023-10-11T19:22:28.971Z,24.88
2023-10-11T19:25:30.473Z,25.65
2023-10-11T19:28:31.883Z,24.80
2023-10-11T19:31:33.693Z,23.20
2023-10-11T19:34:35.128Z,24.58
2023-10-11T19:37:36.499Z,22.40
2023-10-11T19:40:38.179Z,24.23
2023-10-11T19:43:39.581Z,23.73
2023-10-11T19:46:40.972Z,21.03
2023-10-11T19:49:42.350Z,22.63
2023-10-11T19:52:43.707Z,22.55
2023-10-11T19:55:45.044Z,21.52
2023-10-11T19:58:46.398Z,19.35
2023-10-11T20:01:47.817Z,18.73
2023-10-11T20:04:49.328Z,17.27
2023-10-11T20:07:50.708Z,19.15
2023-10-11T20:10:52.152Z,16.75
2023-10-11T20:13:53.628Z,20.23
2023-10-11T20:16:54.969Z,16.60
2023-10-11T20:19:56.333Z,18.08
2023-10-11T20:22:57.670Z,16.67
2023-10-11T20:25:59.123Z,16.75
2023-10-11T20:29:00.567Z,16.40
2023-10-11T20:32:02.031Z,18.73
2023-10-11T20:35:03.393Z,16.33
2023-10-11T20:38:04.762Z,16.92
2023-10-11T20:41:06.141Z,17.08
2023-10-11T20:44:07.490Z,14.75
2023-10-11T20:47:08.860Z,12.50
2023-10-11T20:50:10.227Z,14.88
2023-10-11T20:53:11.585Z,15.93
2023-10-11T20:56:12.918Z,12.82
2023-10-11T20:59:14.271Z,14.90
2023-10-11T21:02:15.648Z,12.90
2023-10-11T21:05:17.010Z,15.55
2023-10-11T21:08:18.360Z,13.68
2023-10-11T21:11:19.711Z,14.95
2023-10-11T21:14:21.068Z,11.27
2023-10-11T21:17:22.475Z,13.70
2023-10-11T21:20:23.829Z,16.15
2023-10-11T21:23:25.181Z,12.75
2023-10-11T21:26:26.543Z,12.95
2023-10-11T21:29:27.891Z,14.65
2023-10-11T21:32:29.218Z,12.00
2023-10-11T21:35:30.606Z,11.27
2023-10-11T21:38:31.962Z,12.43
2023-10-11T21:41:33.322Z,10.95
2023-10-11T21:44:34.676Z,11.98
2023-10-11T21:47:36.012Z,10.60
2023-10-11T21:50:37.373Z,9.75
2023-10-11T21:53:38.734Z,9.07
2023-10-11T21:56:40.085Z,13.55
2023-10-11T21:59:41.414Z,9.95
2023-10-11T22:02:42.863Z,11.10
2023-10-11T22:05:44.279Z,10.05
2023-10-11T22:08:45.639Z,10.45
2023-10-11T22:11:46.981Z,9.45
2023-10-11T22:14:48.303Z,8.40
2023-10-11T22:17:49.715Z,11.37
2023-10-11T22:20:51.630Z,9.68
2023-10-11T22:23:53.263Z,8.70
2023-10-11T22:26:54.595Z,11.05
2023-10-11T22:29:55.922Z,9.43
2023-10-11T22:32:57.313Z,8.47
2023-10-11T22:35:58.668Z,11.05
2023-10-11T22:39:00.011Z,8.23
2023-10-11T22:42:01.395Z,9.88
2023-10-11T22:45:02.792Z,9.77
2023-10-11T22:48:04.171Z,12.13
2023-10-11T22:51:05.536Z,11.52
2023-10-11T22:54:06.852Z,9.07
2023-10-11T22:57:08.201Z,9.75
2023-10-11T23:00:09.542Z,9.00
2023-10-11T23:03:11.015Z,9.87
2023-10-11T23:06:12.422Z,8.85
2023-10-11T23:09:13.763Z,10.95
2023-10-11T23:12:15.285Z,8.38
2023-10-11T23:15:16.723Z,8.77
2023-10-11T23:18:18.109Z,9.50
2023-10-11T23:21:19.477Z,10.27
2023-10-11T23:24:21.080Z,12.10
2023-10-11T23:27:22.643Z,9.80
2023-10-11T23:30:24.097Z,9.05
2023-10-11T23:33:25.544Z,10.93
2023-10-11T23:36:27.039Z,9.50
2023-10-11T23:39:28.404Z,9.15
2023-10-11T23:42:29.768Z,8.35
2023-10-11T23:45:31.176Z,10.45
2023-10-11T23:48:32.577Z,9.90
2023-10-11T23:51:33.989Z,9.27
2023-10-11T23:54:35.388Z,7.70
2023-10-11T23:57:36.851Z,8.30
